Flight Track Log - Related Links

Times and Time Zones

All times are in EDT time to prevent confusion due to time zone crossing. See the WIG7117 flight status page for this flight to view local times or setup timezone preferences in your user account.

Time Position Orientation Groundspeed Altitude Reporting Facility
EDT Latitude Longitude Course Direction KTS MPH feet Rate Location/Type
Tue 10:26:02 PM 42.7269 -73.8067 184° South 113 130 1,000  Level Boston Center
Tue 10:26:20 PM 42.7206 -73.8072 184° South 115 132 1,300 1,231 Climbing Boston Center
Tue 10:27:20 PM 42.7236 -73.8375 278° West 80 92 2,600 1,371 Climbing Boston Center
Tue 10:28:05 PM 42.7311 -73.8592 295° West 82 94 3,700 1,313 Climbing Boston Center
Tue 10:28:24 PM 42.7306 -73.8689 266° West 84 97 4,000 1,258 Climbing Boston Center
Tue 10:29:07 PM 42.7350 -73.8908 285° West 82 94 5,000 1,282 Climbing Boston Center
Tue 10:30:07 PM 42.7392 -73.9231 280° West 86 99 6,200 600 Climbing Boston Center
Tue 10:31:07 PM 42.7467 -73.9653 284° West 117 135 6,200 -49 Level Boston Center
Tue 10:32:09 PM 42.7564 -74.0144 285° West 130 150 6,100 -49 Descending Boston Center
Tue 10:33:09 PM 42.7642 -74.0628 282° West 131 151 6,100  Level Boston Center
Tue 10:34:10 PM 42.7725 -74.1106 283° West 130 150 6,100  Level Boston Center
Tue 10:35:08 PM 42.7817 -74.1597 284° West 126 145 6,100 -50 Level Boston Center
Tue 10:36:10 PM 42.7892 -74.2050 283° West 124 143 6,000 64 Descending Boston Center
Tue 10:36:42 PM 42.7933 -74.2303 283° West 123 142 6,200 97 Climbing Boston Center
Tue 10:37:12 PM 42.7969 -74.2494 284° West 124 143 6,100 -67 Descending Boston Center
Tue 10:38:12 PM 42.8050 -74.2969 283° West 126 145 6,100  Level Boston Center
Tue 10:39:13 PM 42.8125 -74.3433 282° West 126 145 6,100  Level Boston Center
Tue 10:40:11 PM 42.8194 -74.3881 282° West 125 144 6,100  Level Boston Center
Tue 10:41:12 PM 42.8272 -74.4342 283° West 124 143 6,100 50 Level Boston Center
Tue 10:42:12 PM 42.8350 -74.4831 282° West 124 143 6,200 48 Climbing Boston Center
Tue 10:43:16 PM 42.8431 -74.5294 283° West 124 143 6,200  Level Boston Center
Tue 10:44:16 PM 42.8531 -74.5756 286° West 125 144 6,200  Level Boston Center
Tue 10:45:17 PM 42.8619 -74.6219 285° West 125 144 6,200  Level Boston Center
Tue 10:46:18 PM 42.8717 -74.6689 286° West 126 145 6,200  Level Boston Center
Tue 10:47:18 PM 42.8792 -74.7153 282° West 126 145 6,200  Level Boston Center
Tue 10:48:19 PM 42.8883 -74.7617 285° West 126 145 6,200  Level Boston Center
Tue 10:49:20 PM 42.8964 -74.8092 283° West 127 146 6,200  Level Boston Center
Tue 10:50:21 PM 42.9053 -74.8553 285° West 127 146 6,200  Level Boston Center
Tue 10:51:21 PM 42.9139 -74.9036 284° West 127 146 6,200  Level Boston Center
Tue 10:52:21 PM 42.9253 -74.9544 287° West 126 145 6,200  Level Boston Center
Tue 10:53:22 PM 42.9344 -75.0036 284° West 132 152 6,200  Level Boston Center
Tue 10:54:23 PM 42.9433 -75.0450 286° West 128 147 6,200  Level Boston Center
Tue 10:55:24 PM 42.9528 -75.0928 285° West 129 148 6,200  Level Boston Center
Tue 10:56:24 PM 42.9550 -75.1547 273° West 138 159 6,200  Level Boston Center
Tue 10:57:31 PM 42.9614 -75.2089 279° West 136 157 6,200  Level Boston Center
Tue 10:58:26 PM 42.9667 -75.2433 282° West 131 151 6,200  Level Boston Center
Tue 10:59:26 PM 42.9783 -75.3019 285° West 131 151 6,200 -300 Level Boston Center
Tue 11:00:26 PM 42.9881 -75.3522 285° West 131 151 5,600 -645 Descending Boston Center
Tue 11:01:27 PM 43.0039 -75.4081 291° West 143 165 4,900 -793 Descending Boston Center
Tue 11:02:27 PM 43.0172 -75.4583 290° West 147 169 4,000 -397 Descending Boston Center
Tue 11:03:28 PM 43.0267 -75.5064 285° West 139 160 4,100 49 Climbing Boston Center
Tue 11:04:29 PM 43.0369 -75.5503 288° West 130 150 4,100 -189 Level Boston Center
Tue 11:05:35 PM 43.0508 -75.6025 290° West 130 150 3,700 -361 Descending Boston Center
Tue 11:06:42 PM 43.0581 -75.6631 279° West 142 163 3,300 -313 Descending Boston Center
Tue 11:07:30 PM 43.0656 -75.7025 285° West 149 171 3,100 -300 Descending Boston Center
Tue 11:07:42 PM 43.0644 -75.7144 263° West 140 161 3,000 -380 Descending Boston Center
Tue 11:08:49 PM 43.0703 -75.7686 278° West 139 160 2,600 -218 Descending Boston Center
Tue 11:09:32 PM 43.0747 -75.8033 280° West 139 160 2,600  Level Boston Center
Tue 11:09:50 PM 43.0764 -75.8231 277° West 142 163 2,600  Level Boston Center
Tue 11:10:33 PM 43.0806 -75.8586 279° West 139 160 2,600 -109 Level Boston Center
Tue 11:10:45 PM 43.0828 -75.8744 281° West 149 171 2,500 -492 Descending Boston Center
Tue 11:11:34 PM 43.0883 -75.9142 281° West 144 166 2,100 -393 Descending Boston Center
Tue 11:11:46 PM 43.0900 -75.9322 277° West 149 171 2,100 -100 Level Boston Center
Tue 11:12:34 PM 43.0944 -75.9664 280° West 144 166 2,000 -100 Descending Boston Center
Tue 11:12:46 PM 43.0947 -75.9806 272° West 135 155 2,000 -387 Level Boston Center
Tue 11:13:36 PM 43.1000 -76.0175 281° West 142 163 1,600 -484 Descending Boston Center
Tue 11:13:48 PM 43.1036 -76.0300 292° West 135 155 1,500 -689 Descending Boston Center
Tue 11:14:37 PM 43.1114 -76.0628 288° West 133 153 900 -814 Descending Boston Center
Tue 11:14:47 PM 43.1100 -76.0814 264° West 123 142 700 -492 Descending Boston Center
Tue 11:15:38 PM 43.1111 -76.1061 274° West 123 142 400 -353 Descending Boston Center
Tue 11:17:00 PM 43.1112 -76.1063 158° South  Level Estimated
Tue 11:24:00 PM 43.1112 -76.1063 270° West  Level Estimated
Tue 11:25:00 PM 43.1112 -76.1063 158° South  Level Estimated

Login

Don't have an account? Register now (free) for customized features, flight alerts, and more!